createdAt,value
2023-04-23T00:02:18.241Z,7.13
2023-04-23T00:04:53.161Z,7.07
2023-04-23T00:07:22.823Z,7.04
2023-04-23T00:09:54.246Z,7.12
2023-04-23T00:12:23.949Z,7.11
2023-04-23T00:14:55.160Z,7.14
2023-04-23T00:17:24.367Z,7.12
2023-04-23T00:19:53.492Z,7.13
2023-04-23T00:22:22.694Z,7.11
2023-04-23T00:24:51.739Z,7.07
2023-04-23T00:27:21.399Z,7.20
2023-04-23T00:29:53.515Z,7.24
2023-04-23T00:32:22.972Z,7.27
2023-04-23T00:34:52.087Z,7.29
2023-04-23T00:37:21.213Z,7.24
2023-04-23T00:39:50.621Z,7.16
2023-04-23T00:42:19.717Z,7.08
2023-04-23T00:44:48.814Z,6.95
2023-04-23T00:47:20.842Z,6.90
2023-04-23T00:49:51.475Z,6.79
2023-04-23T00:52:20.436Z,6.65
2023-04-23T00:54:49.479Z,6.54
2023-04-23T00:57:18.758Z,6.47
2023-04-23T00:59:48.494Z,6.41
2023-04-23T01:02:19.254Z,6.34
2023-04-23T01:04:51.562Z,6.28
2023-04-23T01:07:20.717Z,6.24
2023-04-23T01:09:51.113Z,6.17
2023-04-23T01:12:20.331Z,6.15
2023-04-23T01:14:49.612Z,6.04
2023-04-23T01:17:20.144Z,6.03
2023-04-23T01:19:49.272Z,6.01
2023-04-23T01:22:19.897Z,5.99
2023-04-23T01:24:51.052Z,5.94
2023-04-23T01:27:21.291Z,5.88
2023-04-23T01:29:51.138Z,5.88
2023-04-23T01:32:21.301Z,5.99
2023-04-23T01:34:54.110Z,6.01
2023-04-23T01:37:25.856Z,6.04
2023-04-23T01:39:55.147Z,6.05
2023-04-23T01:42:24.796Z,6.10
2023-04-23T01:44:56.422Z,6.19
2023-04-23T01:47:25.906Z,6.13
2023-04-23T01:49:55.030Z,6.13
2023-04-23T01:52:25.521Z,6.05
2023-04-23T01:54:54.612Z,6.06
2023-04-23T01:57:26.855Z,6.06
2023-04-23T02:00:05.988Z,6.08
2023-04-23T02:02:44.333Z,5.96
2023-04-23T02:05:14.659Z,5.93
2023-04-23T02:07:45.768Z,5.96
2023-04-23T02:10:14.942Z,5.98
2023-04-23T02:12:44.381Z,5.89
2023-04-23T02:15:13.945Z,5.86
2023-04-23T02:17:43.116Z,5.85
2023-04-23T02:20:13.428Z,5.88
2023-04-23T02:22:44.812Z,5.91
2023-04-23T02:25:15.914Z,5.92
2023-04-23T02:27:45.077Z,5.98
2023-04-23T02:30:14.554Z,6.00
2023-04-23T02:32:44.242Z,6.17
2023-04-23T02:35:13.702Z,6.26
2023-04-23T02:37:42.929Z,6.30
2023-04-23T02:40:14.298Z,6.29
2023-04-23T02:42:44.080Z,6.29
2023-04-23T02:45:13.572Z,6.27
2023-04-23T02:47:42.807Z,6.17
2023-04-23T02:50:12.437Z,6.11
2023-04-23T02:52:41.628Z,6.08
2023-04-23T02:55:12.806Z,6.00
2023-04-23T02:57:42.086Z,5.81
2023-04-23T03:00:12.988Z,5.74
2023-04-23T03:02:44.155Z,5.65
2023-04-23T03:05:13.296Z,5.52
2023-04-23T03:07:43.372Z,5.47
2023-04-23T03:10:14.410Z,5.47
2023-04-23T03:12:44.557Z,5.42
2023-04-23T03:15:13.837Z,5.29
2023-04-23T03:17:43.395Z,5.29
2023-04-23T03:20:13.587Z,5.34
2023-04-23T03:22:42.893Z,5.39
2023-04-23T03:25:13.817Z,5.41
2023-04-23T03:27:44.221Z,5.43
2023-04-23T03:30:13.921Z,5.47
2023-04-23T03:32:43.056Z,5.52
2023-04-23T03:35:13.671Z,5.55
2023-04-23T03:37:46.611Z,5.58
2023-04-23T03:40:18.337Z,5.61
2023-04-23T03:42:50.683Z,5.51
2023-04-23T03:45:24.301Z,5.52
2023-04-23T03:47:53.755Z,5.45
2023-04-23T03:50:22.965Z,5.51
2023-04-23T03:53:10.155Z,5.51
2023-04-23T03:56:15.305Z,5.41
2023-04-23T03:58:52.890Z,5.41
2023-04-23T04:01:22.458Z,5.36
2023-04-23T04:03:53.297Z,5.42
2023-04-23T04:06:22.587Z,5.55
2023-04-23T04:08:51.542Z,5.66
2023-04-23T04:11:22.261Z,5.75
2023-04-23T04:13:51.469Z,5.81
2023-04-23T04:16:20.689Z,5.87
2023-04-23T04:18:49.781Z,5.97
2023-04-23T04:21:19.183Z,6.03
2023-04-23T04:23:49.577Z,6.25
2023-04-23T04:26:19.135Z,6.27
2023-04-23T04:28:49.841Z,6.28
2023-04-23T04:31:20.753Z,6.35
2023-04-23T04:33:49.980Z,6.36
2023-04-23T04:36:19.082Z,6.26
2023-04-23T04:38:48.190Z,6.31
2023-04-23T04:41:17.236Z,6.37
2023-04-23T04:43:50.802Z,6.49
2023-04-23T04:46:21.076Z,6.51
2023-04-23T04:48:50.506Z,6.63
2023-04-23T04:51:19.852Z,6.70
2023-04-23T04:53:49.056Z,6.76
2023-04-23T04:56:18.119Z,6.90
2023-04-23T04:58:47.627Z,6.98
2023-04-23T05:01:18.669Z,7.01
2023-04-23T05:03:48.079Z,7.07
2023-04-23T05:06:17.338Z,7.12
2023-04-23T05:08:48.439Z,7.15
2023-04-23T05:11:18.353Z,7.23
2023-04-23T05:13:47.664Z,7.32
2023-04-23T05:16:18.284Z,7.50
2023-04-23T05:18:47.271Z,7.61
2023-04-23T05:21:17.138Z,7.77
2023-04-23T05:23:46.244Z,7.91
2023-04-23T05:26:15.358Z,7.98
2023-04-23T05:28:44.428Z,8.08
2023-04-23T05:31:13.570Z,8.12
2023-04-23T05:33:50.113Z,8.25
2023-04-23T05:36:20.085Z,8.34
2023-04-23T05:38:49.251Z,8.58
2023-04-23T05:41:18.446Z,8.74
2023-04-23T05:43:47.425Z,8.94
2023-04-23T05:46:16.440Z,9.10
2023-04-23T05:48:46.926Z,9.36
2023-04-23T05:51:16.073Z,9.57
2023-04-23T05:53:45.308Z,9.77
2023-04-23T05:56:14.438Z,10.01
2023-04-23T05:58:43.643Z,10.21
2023-04-23T06:01:12.659Z,10.39
2023-04-23T06:03:45.740Z,10.30
2023-04-23T06:06:16.853Z,10.35
2023-04-23T06:08:46.235Z,10.50
2023-04-23T06:11:15.284Z,10.74
2023-04-23T06:13:44.672Z,10.98
2023-04-23T06:16:13.911Z,11.15
2023-04-23T06:18:43.208Z,11.36
2023-04-23T06:21:12.855Z,11.57
2023-04-23T06:23:43.569Z,11.75
2023-04-23T06:26:12.582Z,11.97
2023-04-23T06:28:43.838Z,12.10
2023-04-23T06:31:34.227Z,12.06
2023-04-23T06:34:03.959Z,12.28
2023-04-23T06:36:33.346Z,12.40
2023-04-23T06:39:03.839Z,12.60
2023-04-23T06:41:33.015Z,12.68
2023-04-23T06:44:13.884Z,12.84
2023-04-23T06:46:50.287Z,12.97
2023-04-23T06:49:20.283Z,13.10
2023-04-23T06:51:49.732Z,13.02
2023-04-23T06:54:20.244Z,12.93
2023-04-23T06:56:49.471Z,12.82
2023-04-23T06:59:19.755Z,12.69
2023-04-23T07:01:52.843Z,12.79
2023-04-23T07:04:22.088Z,13.08
2023-04-23T07:06:51.456Z,13.08
2023-04-23T07:09:22.072Z,13.25
2023-04-23T07:11:51.327Z,13.51
2023-04-23T07:14:20.488Z,13.74
2023-04-23T07:16:49.678Z,13.88
2023-04-23T07:19:19.056Z,13.80
2023-04-23T07:21:48.135Z,14.05
2023-04-23T07:24:17.459Z,14.39
2023-04-23T07:26:48.155Z,14.35
2023-04-23T07:29:17.385Z,14.56
2023-04-23T07:31:46.700Z,14.65
2023-04-23T07:34:16.249Z,14.44
2023-04-23T07:36:45.396Z,14.87
2023-04-23T07:39:14.392Z,15.08
2023-04-23T07:41:43.495Z,15.27
2023-04-23T07:44:14.139Z,15.24
2023-04-23T07:46:43.314Z,15.41
2023-04-23T07:49:12.396Z,15.69
2023-04-23T07:51:41.856Z,15.61
2023-04-23T07:54:11.890Z,15.93
2023-04-23T07:56:43.139Z,15.77
2023-04-23T07:59:14.035Z,15.36
2023-04-23T08:01:43.364Z,15.46
2023-04-23T08:04:14.312Z,15.58
2023-04-23T08:06:43.622Z,15.78
2023-04-23T08:09:12.681Z,15.93
2023-04-23T08:11:42.581Z,16.02
2023-04-23T08:14:12.052Z,16.02
2023-04-23T08:16:42.703Z,16.15
2023-04-23T08:19:12.179Z,16.58
2023-04-23T08:21:42.483Z,16.73
2023-04-23T08:24:11.654Z,16.76
2023-04-23T08:26:41.318Z,16.76
2023-04-23T08:29:11.604Z,16.87
2023-04-23T08:31:42.562Z,16.99
2023-04-23T08:34:11.752Z,17.26
2023-04-23T08:36:41.014Z,17.55
2023-04-23T08:39:10.206Z,17.54
2023-04-23T08:41:43.198Z,17.54
2023-04-23T08:44:14.427Z,17.26
2023-04-23T08:46:46.806Z,17.47
2023-04-23T08:49:17.847Z,17.61
2023-04-23T08:51:51.142Z,17.69
2023-04-23T08:54:24.383Z,17.95
2023-04-23T08:56:53.582Z,18.01
2023-04-23T08:59:23.354Z,17.79
2023-04-23T09:01:54.875Z,18.12
2023-04-23T09:04:25.764Z,17.92
2023-04-23T09:06:55.001Z,18.14
2023-04-23T09:09:27.125Z,18.42
2023-04-23T09:11:57.520Z,18.73
2023-04-23T09:14:27.920Z,18.88
2023-04-23T09:16:59.086Z,19.10
2023-04-23T09:19:29.268Z,18.83
2023-04-23T09:22:01.458Z,18.43
2023-04-23T09:24:31.185Z,18.57
2023-04-23T09:27:00.541Z,18.62
2023-04-23T09:29:29.890Z,18.70
2023-04-23T09:32:08.454Z,18.73
2023-04-23T09:34:39.183Z,19.16
2023-04-23T09:37:11.248Z,19.65
2023-04-23T09:39:41.488Z,19.72
2023-04-23T09:42:12.864Z,19.78
2023-04-23T09:44:42.166Z,20.11
2023-04-23T09:47:15.209Z,20.49
2023-04-23T09:49:48.733Z,20.65
2023-04-23T09:52:18.516Z,20.41
2023-04-23T09:54:48.070Z,20.13
2023-04-23T09:57:17.878Z,20.44
2023-04-23T09:59:51.547Z,20.77
2023-04-23T10:02:29.477Z,20.86
2023-04-23T10:05:14.086Z,20.67
2023-04-23T10:07:51.122Z,20.63
2023-04-23T10:10:21.577Z,21.04
2023-04-23T10:12:55.189Z,20.83
2023-04-23T10:15:27.928Z,21.07
2023-04-23T10:17:59.568Z,21.14
2023-04-23T10:20:32.457Z,21.38
2023-04-23T10:23:02.775Z,21.58
2023-04-23T10:25:32.732Z,21.69
2023-04-23T10:28:03.663Z,21.60
2023-04-23T10:30:32.959Z,21.80
2023-04-23T10:33:06.089Z,21.81
2023-04-23T10:35:38.585Z,22.08
2023-04-23T10:38:08.277Z,22.61
2023-04-23T10:40:39.494Z,22.43
2023-04-23T10:43:08.916Z,22.49
2023-04-23T10:45:37.995Z,22.34
2023-04-23T10:48:08.894Z,22.32
2023-04-23T10:50:41.688Z,22.45
2023-04-23T10:53:22.673Z,22.86
2023-04-23T10:55:52.010Z,22.29
2023-04-23T10:58:22.385Z,22.16
2023-04-23T11:00:52.498Z,21.67
2023-04-23T11:03:33.944Z,21.73
2023-04-23T11:06:04.155Z,21.45
2023-04-23T11:08:33.868Z,21.68
2023-04-23T11:11:03.884Z,21.88
2023-04-23T11:13:32.937Z,21.95
2023-04-23T11:16:18.740Z,22.29
2023-04-23T11:19:12.626Z,22.29
2023-04-23T11:22:01.280Z,22.02
2023-04-23T11:24:36.856Z,22.54
2023-04-23T11:27:08.292Z,22.72
2023-04-23T11:29:39.051Z,23.10
2023-04-23T11:32:10.990Z,22.94
2023-04-23T11:34:43.658Z,23.30
2023-04-23T11:37:16.442Z,23.56
2023-04-23T11:39:47.805Z,23.46
2023-04-23T11:42:17.554Z,23.19
2023-04-23T11:44:47.981Z,23.59
2023-04-23T11:47:18.911Z,23.72
2023-04-23T11:49:50.208Z,23.78
2023-04-23T11:52:19.332Z,23.80
2023-04-23T11:54:48.357Z,23.62
2023-04-23T11:57:17.285Z,24.38
2023-04-23T11:59:46.256Z,24.57
2023-04-23T12:02:15.434Z,24.48
2023-04-23T12:04:45.887Z,24.31
2023-04-23T12:07:25.667Z,23.93
2023-04-23T12:10:00.932Z,23.59
2023-04-23T12:12:36.490Z,23.33
2023-04-23T12:15:06.875Z,23.04
2023-04-23T12:17:36.357Z,22.90
2023-04-23T12:20:07.945Z,23.02
2023-04-23T12:22:38.559Z,23.01
2023-04-23T12:25:09.850Z,23.93
2023-04-23T12:27:42.749Z,24.72
2023-04-23T12:30:13.414Z,25.06
2023-04-23T12:32:43.062Z,26.21
2023-04-23T12:35:12.457Z,26.59
2023-04-23T12:37:43.076Z,26.94
2023-04-23T12:40:13.194Z,26.94
2023-04-23T12:42:42.631Z,27.06
2023-04-23T12:45:12.245Z,27.21
2023-04-23T12:47:41.468Z,27.86
2023-04-23T12:50:11.650Z,27.54
2023-04-23T12:52:40.826Z,27.39
2023-04-23T12:55:11.719Z,26.49
2023-04-23T12:57:40.870Z,26.40
2023-04-23T13:00:11.497Z,26.34
2023-04-23T13:02:40.953Z,26.33
2023-04-23T13:05:10.718Z,26.58
2023-04-23T13:07:39.788Z,25.85
2023-04-23T13:10:11.669Z,25.76
2023-04-23T13:12:41.020Z,25.70
2023-04-23T13:15:12.997Z,25.77
2023-04-23T13:17:47.278Z,25.36
2023-04-23T13:20:16.671Z,25.32
2023-04-23T13:22:45.954Z,25.63
2023-04-23T13:25:16.773Z,24.95
2023-04-23T13:27:46.353Z,23.81
2023-04-23T13:30:15.856Z,22.60
2023-04-23T13:32:45.083Z,22.61
2023-04-23T13:35:16.472Z,22.26
2023-04-23T13:37:45.703Z,21.88
2023-04-23T13:40:16.221Z,22.07
2023-04-23T13:42:48.271Z,21.40
2023-04-23T13:45:17.432Z,21.14
2023-04-23T13:47:46.717Z,21.18
2023-04-23T13:50:15.998Z,20.81
2023-04-23T13:52:45.206Z,20.60
2023-04-23T13:55:16.079Z,20.55
2023-04-23T13:57:45.399Z,20.36
2023-04-23T14:00:15.425Z,20.36
2023-04-23T14:02:44.695Z,20.43
2023-04-23T14:05:14.019Z,20.80
2023-04-23T14:07:43.171Z,20.92
2023-04-23T14:10:12.917Z,20.98
2023-04-23T14:12:43.728Z,20.65
2023-04-23T14:15:13.282Z,20.52
2023-04-23T14:17:43.496Z,20.21
2023-04-23T14:20:15.784Z,20.26
2023-04-23T14:22:45.070Z,20.20
2023-04-23T14:25:17.626Z,20.37
2023-04-23T14:27:51.855Z,20.24
2023-04-23T14:30:22.131Z,20.37
2023-04-23T14:32:51.320Z,20.01
2023-04-23T14:35:32.248Z,20.02
2023-04-23T14:38:09.902Z,20.01
2023-04-23T14:40:38.902Z,19.70
2023-04-23T14:43:15.516Z,19.45
2023-04-23T14:45:45.653Z,19.22
2023-04-23T14:48:15.349Z,19.33
2023-04-23T14:50:44.716Z,19.35
2023-04-23T14:53:13.953Z,19.04
2023-04-23T14:55:43.637Z,18.94
2023-04-23T14:58:14.337Z,18.95
2023-04-23T15:00:43.590Z,18.97
2023-04-23T15:03:13.080Z,18.93
2023-04-23T15:05:43.041Z,18.86
2023-04-23T15:08:13.530Z,18.78
2023-04-23T15:10:42.737Z,18.68
2023-04-23T15:13:37.085Z,18.82
2023-04-23T15:16:11.177Z,18.89
2023-04-23T15:18:40.574Z,18.96
2023-04-23T15:21:09.882Z,18.70
2023-04-23T15:23:40.535Z,18.69
2023-04-23T15:26:09.830Z,18.63
2023-04-23T15:28:40.522Z,18.61
2023-04-23T15:31:09.653Z,18.48
2023-04-23T15:33:39.018Z,18.37
2023-04-23T15:36:08.491Z,18.35
2023-04-23T15:38:37.767Z,18.46
2023-04-23T15:41:07.435Z,18.44
2023-04-23T15:43:36.582Z,18.43
2023-04-23T15:46:07.235Z,18.40
2023-04-23T15:48:39.869Z,18.17
2023-04-23T15:51:09.941Z,18.19
2023-04-23T15:53:39.359Z,18.27
2023-04-23T15:56:08.653Z,18.14
2023-04-23T15:58:37.876Z,18.21
2023-04-23T16:01:10.047Z,18.13
2023-04-23T16:03:39.631Z,18.12
2023-04-23T16:06:09.958Z,18.01
2023-04-23T16:08:40.024Z,17.99
2023-04-23T16:11:09.916Z,17.89
2023-04-23T16:13:39.212Z,17.79
2023-04-23T16:16:09.855Z,17.74
2023-04-23T16:18:38.997Z,17.78
2023-04-23T16:21:08.068Z,17.77
2023-04-23T16:23:37.378Z,17.71
2023-04-23T16:26:09.128Z,17.67
2023-04-23T16:28:38.389Z,17.56
2023-04-23T16:31:07.895Z,17.54
2023-04-23T16:33:38.500Z,17.49
2023-04-23T16:36:08.245Z,17.43
2023-04-23T16:38:37.488Z,17.38
2023-04-23T16:41:06.984Z,17.34
2023-04-23T16:43:36.244Z,17.26
2023-04-23T16:46:05.641Z,17.11
2023-04-23T16:48:46.760Z,17.04
2023-04-23T16:51:17.145Z,17.05
2023-04-23T16:53:46.236Z,16.92
2023-04-23T16:56:15.764Z,16.86
2023-04-23T16:58:45.231Z,16.58
2023-04-23T17:01:14.336Z,16.65
2023-04-23T17:03:45.231Z,16.56
2023-04-23T17:06:27.048Z,16.42
2023-04-23T17:08:57.901Z,16.31
2023-04-23T17:11:27.878Z,16.36
2023-04-23T17:13:57.840Z,16.23
2023-04-23T17:16:27.911Z,16.21
2023-04-23T17:18:58.686Z,16.04
2023-04-23T17:21:28.003Z,16.10
2023-04-23T17:24:00.350Z,16.09
2023-04-23T17:26:29.555Z,16.07
2023-04-23T17:28:58.698Z,15.97
2023-04-23T17:31:28.055Z,15.78
2023-04-23T17:33:59.234Z,15.61
2023-04-23T17:36:28.494Z,15.58
2023-04-23T17:38:57.662Z,15.59
2023-04-23T17:41:26.818Z,15.48
2023-04-23T17:43:56.109Z,15.39
2023-04-23T17:46:25.612Z,15.26
2023-04-23T17:48:54.919Z,15.09
2023-04-23T17:51:25.490Z,14.90
2023-04-23T17:53:54.701Z,14.89
2023-04-23T17:56:24.080Z,14.82
2023-04-23T17:58:53.077Z,14.75
2023-04-23T18:01:22.197Z,14.65
2023-04-23T18:03:51.977Z,14.60
2023-04-23T18:06:24.708Z,14.55
2023-04-23T18:08:55.298Z,14.44
2023-04-23T18:11:24.841Z,14.21
2023-04-23T18:13:54.731Z,14.20
2023-04-23T18:16:23.972Z,14.06
2023-04-23T18:18:53.107Z,14.10
2023-04-23T18:21:23.612Z,13.79
2023-04-23T18:23:52.845Z,13.85
2023-04-23T18:26:24.201Z,13.73
2023-04-23T18:28:55.925Z,13.64
2023-04-23T18:31:25.111Z,13.51
2023-04-23T18:33:58.623Z,13.54
2023-04-23T18:36:33.249Z,13.51
2023-04-23T18:39:04.491Z,13.31
2023-04-23T18:41:36.293Z,13.34
2023-04-23T18:44:08.281Z,13.20
2023-04-23T18:46:43.418Z,13.16
2023-04-23T18:49:41.557Z,13.14
2023-04-23T18:52:13.988Z,13.18
2023-04-23T18:54:44.490Z,13.22
2023-04-23T18:57:15.073Z,13.06
2023-04-23T18:59:44.424Z,12.83
2023-04-23T19:02:18.922Z,12.93
2023-04-23T19:04:58.048Z,12.76
2023-04-23T19:07:27.303Z,12.91
2023-04-23T19:09:56.432Z,12.89
2023-04-23T19:12:27.318Z,12.87
2023-04-23T19:14:56.455Z,12.77
2023-04-23T19:17:25.678Z,12.83
2023-04-23T19:19:54.978Z,12.66
2023-04-23T19:22:26.010Z,12.77
2023-04-23T19:24:55.250Z,12.78
2023-04-23T19:27:24.344Z,12.68
2023-04-23T19:29:56.043Z,12.70
2023-04-23T19:32:25.223Z,12.56
2023-04-23T19:34:54.288Z,12.62
2023-04-23T19:37:23.426Z,12.63
2023-04-23T19:39:52.610Z,12.57
2023-04-23T19:42:22.215Z,12.62
2023-04-23T19:44:51.411Z,12.55
2023-04-23T19:47:22.052Z,12.52
2023-04-23T19:49:51.590Z,12.45
2023-04-23T19:52:24.275Z,12.52
2023-04-23T19:54:53.470Z,12.43
2023-04-23T19:57:23.025Z,12.36
2023-04-23T19:59:52.184Z,12.43
2023-04-23T20:02:22.749Z,12.39
2023-04-23T20:04:52.143Z,12.39
2023-04-23T20:07:21.334Z,12.29
2023-04-23T20:09:50.744Z,12.23
2023-04-23T20:12:21.189Z,12.14
2023-04-23T20:14:50.233Z,12.13
2023-04-23T20:17:19.506Z,12.12
2023-04-23T20:19:50.056Z,12.05
2023-04-23T20:22:19.161Z,11.98
2023-04-23T20:24:49.037Z,11.99
2023-04-23T20:27:18.256Z,11.96
2023-04-23T20:29:47.502Z,11.80
2023-04-23T20:32:17.678Z,11.70
2023-04-23T20:34:47.005Z,11.80
2023-04-23T20:37:21.735Z,11.78
2023-04-23T20:39:51.213Z,11.63
2023-04-23T20:42:20.195Z,11.75
2023-04-23T20:44:49.303Z,11.83
2023-04-23T20:47:18.327Z,11.85
2023-04-23T20:49:47.481Z,11.85
2023-04-23T20:52:18.012Z,11.89
2023-04-23T20:54:47.194Z,11.93
2023-04-23T20:57:16.347Z,11.99
2023-04-23T20:59:45.494Z,12.06
2023-04-23T21:02:15.496Z,12.02
2023-04-23T21:04:44.680Z,11.96
2023-04-23T21:07:13.794Z,11.88
2023-04-23T21:09:44.674Z,11.95
2023-04-23T21:12:14.044Z,11.67
2023-04-23T21:14:43.576Z,11.84
2023-04-23T21:17:12.589Z,11.86
2023-04-23T21:19:42.297Z,11.86
2023-04-23T21:22:11.814Z,11.82
2023-04-23T21:24:40.994Z,11.75
2023-04-23T21:27:12.581Z,11.75
2023-04-23T21:29:42.857Z,11.69
2023-04-23T21:32:21.741Z,11.70
2023-04-23T21:34:51.093Z,11.56
2023-04-23T21:37:20.284Z,11.52
2023-04-23T21:39:49.207Z,11.51
2023-04-23T21:42:20.028Z,11.51
2023-04-23T21:44:49.114Z,11.56
2023-04-23T21:47:18.099Z,11.50
2023-04-23T21:49:47.305Z,11.40
2023-04-23T21:52:17.582Z,11.19
2023-04-23T21:54:46.738Z,10.90
2023-04-23T21:57:16.151Z,10.84
2023-04-23T21:59:46.789Z,10.85
2023-04-23T22:02:16.132Z,10.91
2023-04-23T22:04:45.329Z,11.03
2023-04-23T22:07:14.878Z,11.17
2023-04-23T22:09:44.463Z,11.26
2023-04-23T22:12:13.726Z,11.35
2023-04-23T22:14:42.971Z,11.35
2023-04-23T22:17:13.642Z,11.33
2023-04-23T22:19:43.184Z,11.36
2023-04-23T22:22:12.381Z,11.54
2023-04-23T22:24:41.586Z,11.53
2023-04-23T22:27:10.702Z,11.59
2023-04-23T22:29:40.004Z,11.57
2023-04-23T22:32:09.193Z,11.63
2023-04-23T22:34:40.251Z,11.63
2023-04-23T22:37:09.390Z,11.43
2023-04-23T22:39:44.426Z,11.25
2023-04-23T22:42:13.704Z,11.34
2023-04-23T22:44:42.654Z,11.38
2023-04-23T22:47:12.312Z,11.45
2023-04-23T22:49:43.129Z,11.44
2023-04-23T22:52:14.549Z,11.46
2023-04-23T22:54:43.850Z,11.50
2023-04-23T22:57:13.134Z,11.50
2023-04-23T22:59:42.800Z,11.42
2023-04-23T23:02:12.488Z,11.37
2023-04-23T23:04:43.123Z,11.35
2023-04-23T23:07:12.248Z,11.42
2023-04-23T23:09:41.727Z,11.33
2023-04-23T23:12:11.007Z,11.32
2023-04-23T23:14:40.384Z,11.27
2023-04-23T23:17:09.808Z,11.38
2023-04-23T23:19:38.988Z,11.23
2023-04-23T23:22:09.456Z,11.25
2023-04-23T23:24:38.674Z,11.12
2023-04-23T23:27:07.680Z,10.97
2023-04-23T23:29:36.875Z,11.01
2023-04-23T23:32:06.031Z,10.97
2023-04-23T23:34:35.069Z,11.06
2023-04-23T23:37:04.307Z,11.16
2023-04-23T23:39:34.737Z,11.22
2023-04-23T23:42:04.136Z,11.25
2023-04-23T23:44:33.256Z,11.26
2023-04-23T23:47:02.481Z,11.34
2023-04-23T23:49:31.611Z,11.31
2023-04-23T23:52:00.694Z,11.38
2023-04-23T23:54:29.869Z,11.46
2023-04-23T23:57:01.690Z,11.48
2023-04-23T23:59:30.801Z,11.53
